createdAt,value
2023-03-29T00:00:46.225Z,34.03
2023-03-29T00:03:13.662Z,33.97
2023-03-29T00:05:40.205Z,34.36
2023-03-29T00:08:06.609Z,34.10
2023-03-29T00:10:33.101Z,34.44
2023-03-29T00:12:59.599Z,34.34
2023-03-29T00:15:26.292Z,34.41
2023-03-29T00:17:52.933Z,34.54
2023-03-29T00:20:19.600Z,34.42
2023-03-29T00:22:46.057Z,34.37
2023-03-29T00:25:13.097Z,34.38
2023-03-29T00:27:41.960Z,34.72
2023-03-29T00:30:08.518Z,34.85
2023-03-29T00:32:34.972Z,34.76
2023-03-29T00:35:01.942Z,35.09
2023-03-29T00:37:28.460Z,35.00
2023-03-29T00:39:55.005Z,34.61
2023-03-29T00:42:21.487Z,34.86
2023-03-29T00:44:47.916Z,35.01
2023-03-29T00:47:14.962Z,35.43
2023-03-29T00:49:41.550Z,35.67
2023-03-29T00:52:08.004Z,35.54
2023-03-29T00:54:36.698Z,35.38
2023-03-29T00:57:03.205Z,35.20
2023-03-29T00:59:32.263Z,35.28
2023-03-29T01:01:58.827Z,35.30
2023-03-29T01:04:25.391Z,35.35
2023-03-29T01:06:52.165Z,35.42
2023-03-29T01:09:18.639Z,35.55
2023-03-29T01:11:45.082Z,35.22
2023-03-29T01:14:11.532Z,35.32
2023-03-29T01:16:38.086Z,35.33
2023-03-29T01:19:06.744Z,35.40
2023-03-29T01:21:33.296Z,35.57
2023-03-29T01:23:59.781Z,35.67
2023-03-29T01:26:27.393Z,35.49
2023-03-29T01:28:53.852Z,35.74
2023-03-29T01:31:20.430Z,35.50
2023-03-29T01:33:47.097Z,35.56
2023-03-29T01:36:14.004Z,35.98
2023-03-29T01:38:40.562Z,35.67
2023-03-29T01:41:06.956Z,35.85
2023-03-29T01:43:33.732Z,35.87
2023-03-29T01:46:00.451Z,36.61
2023-03-29T01:48:27.078Z,36.44
2023-03-29T01:50:53.930Z,36.18
2023-03-29T01:53:21.438Z,36.43
2023-03-29T01:55:48.115Z,36.37
2023-03-29T01:58:14.631Z,36.52
2023-03-29T02:00:41.100Z,36.55
2023-03-29T02:03:08.473Z,36.55
2023-03-29T02:05:34.995Z,36.85
2023-03-29T02:08:01.705Z,36.58
2023-03-29T02:10:28.105Z,37.07
2023-03-29T02:12:54.567Z,36.84
2023-03-29T02:15:20.956Z,36.89
2023-03-29T02:17:47.552Z,37.39
2023-03-29T02:20:14.361Z,37.28
2023-03-29T02:22:42.015Z,37.34
2023-03-29T02:25:08.551Z,37.01
2023-03-29T02:27:35.061Z,37.19
2023-03-29T02:30:02.066Z,37.26
2023-03-29T02:32:28.635Z,37.08
2023-03-29T02:34:55.034Z,37.35
2023-03-29T02:37:21.875Z,37.40
2023-03-29T02:39:48.330Z,37.48
2023-03-29T02:42:15.099Z,37.20
2023-03-29T02:44:41.609Z,37.54
2023-03-29T02:47:08.385Z,37.54
2023-03-29T02:49:34.968Z,37.23
2023-03-29T02:52:01.828Z,37.34
2023-03-29T02:54:28.307Z,37.06
2023-03-29T02:56:54.912Z,37.37
2023-03-29T02:59:21.999Z,37.86
2023-03-29T03:01:48.624Z,37.67
2023-03-29T03:04:15.243Z,37.31
2023-03-29T03:06:41.755Z,37.58
2023-03-29T03:09:10.512Z,37.82
2023-03-29T03:11:37.052Z,37.60
2023-03-29T03:14:03.968Z,37.58
2023-03-29T03:16:30.508Z,37.86
2023-03-29T03:18:57.047Z,38.05
2023-03-29T03:21:23.678Z,37.93
2023-03-29T03:23:50.250Z,37.66
2023-03-29T03:26:16.683Z,37.49
2023-03-29T03:28:43.333Z,37.42
2023-03-29T03:31:09.845Z,37.50
2023-03-29T03:33:36.303Z,38.08
2023-03-29T03:36:03.353Z,37.66
2023-03-29T03:38:29.836Z,38.39
2023-03-29T03:40:56.306Z,38.01
2023-03-29T03:43:22.831Z,38.80
2023-03-29T03:45:49.895Z,38.62
2023-03-29T03:48:16.524Z,38.25
2023-03-29T03:50:42.995Z,38.04
2023-03-29T03:53:09.867Z,37.89
2023-03-29T03:55:38.836Z,38.35
2023-03-29T03:58:05.253Z,38.19
2023-03-29T04:00:31.896Z,38.00
2023-03-29T04:02:58.511Z,38.76
2023-03-29T04:05:25.871Z,38.54
2023-03-29T04:07:52.322Z,38.38
2023-03-29T04:10:18.831Z,38.93
2023-03-29T04:12:47.504Z,38.64
2023-03-29T04:15:14.147Z,38.72
2023-03-29T04:17:41.708Z,38.32
2023-03-29T04:20:08.380Z,38.38
2023-03-29T04:22:34.878Z,38.81
2023-03-29T04:25:01.432Z,38.61
2023-03-29T04:27:29.174Z,38.71
2023-03-29T04:29:56.047Z,38.95
2023-03-29T04:32:22.736Z,38.75
2023-03-29T04:34:49.251Z,38.61
2023-03-29T04:37:16.055Z,38.87
2023-03-29T04:39:42.660Z,39.23
2023-03-29T04:42:09.153Z,39.05
2023-03-29T04:44:35.852Z,39.54
2023-03-29T04:47:02.351Z,39.80
2023-03-29T04:49:29.113Z,39.36
2023-03-29T04:51:55.855Z,40.39
2023-03-29T04:54:22.284Z,40.12
2023-03-29T04:56:48.900Z,39.14
2023-03-29T04:59:17.706Z,39.94
2023-03-29T05:01:44.326Z,39.48
2023-03-29T05:04:12.647Z,40.13
2023-03-29T05:06:39.400Z,41.17
2023-03-29T05:09:05.858Z,40.65
2023-03-29T05:11:32.474Z,40.10
2023-03-29T05:13:59.402Z,39.83
2023-03-29T05:16:25.906Z,39.68
2023-03-29T05:18:52.593Z,39.52
2023-03-29T05:21:19.042Z,39.84
2023-03-29T05:23:47.098Z,39.33
2023-03-29T05:26:16.154Z,39.17
2023-03-29T05:28:44.736Z,38.67
2023-03-29T05:31:11.414Z,38.50
2023-03-29T05:33:37.885Z,38.92
2023-03-29T05:36:07.177Z,38.44
2023-03-29T05:38:33.906Z,38.67
2023-03-29T05:41:00.482Z,38.47
2023-03-29T05:43:27.230Z,39.07
2023-03-29T05:45:53.717Z,38.84
2023-03-29T05:48:20.309Z,38.71
2023-03-29T05:50:46.744Z,38.48
2023-03-29T05:53:13.366Z,38.77
2023-03-29T05:55:39.828Z,38.66
2023-03-29T05:58:06.274Z,38.74
2023-03-29T06:00:32.812Z,39.43
2023-03-29T06:03:06.802Z,39.63
2023-03-29T06:05:40.635Z,39.34
2023-03-29T06:08:07.518Z,38.66
2023-03-29T06:10:34.314Z,38.70
2023-03-29T06:13:00.856Z,38.63
2023-03-29T06:15:27.298Z,38.34
2023-03-29T06:17:54.248Z,38.31
2023-03-29T06:20:21.175Z,37.95
2023-03-29T06:22:47.771Z,37.99
2023-03-29T06:25:14.328Z,37.84
2023-03-29T06:27:41.149Z,37.85
2023-03-29T06:30:07.648Z,37.27
2023-03-29T06:32:34.106Z,37.12
2023-03-29T06:35:00.703Z,37.45
2023-03-29T06:37:27.364Z,47.83
2023-03-29T06:39:53.975Z,48.28
2023-03-29T06:42:21.787Z,47.82
2023-03-29T06:44:48.729Z,46.86
2023-03-29T06:47:15.282Z,43.82
2023-03-29T06:49:43.601Z,41.52
2023-03-29T06:52:10.038Z,39.18
2023-03-29T06:54:36.460Z,36.84
2023-03-29T06:57:03.061Z,36.48
2023-03-29T06:59:29.573Z,34.46
2023-03-29T07:01:56.581Z,37.16
2023-03-29T07:04:23.184Z,34.77
2023-03-29T07:06:49.886Z,34.03
2023-03-29T07:09:18.980Z,32.46
2023-03-29T07:11:45.901Z,32.12
2023-03-29T07:14:12.490Z,32.31
2023-03-29T07:16:39.143Z,33.19
2023-03-29T07:19:05.705Z,31.88
2023-03-29T07:21:32.124Z,33.05
2023-03-29T07:23:58.594Z,32.60
2023-03-29T07:26:28.451Z,32.79
2023-03-29T07:28:55.753Z,32.68
2023-03-29T07:31:22.320Z,32.46
2023-03-29T07:33:48.873Z,32.35
2023-03-29T07:36:15.423Z,32.31
2023-03-29T07:38:42.117Z,32.35
2023-03-29T07:41:08.652Z,32.63
2023-03-29T07:43:35.144Z,32.80
2023-03-29T07:46:01.705Z,32.66
2023-03-29T07:48:28.424Z,32.59
2023-03-29T07:50:54.798Z,32.55
2023-03-29T07:53:21.781Z,32.32
2023-03-29T07:55:48.390Z,32.00
2023-03-29T07:58:16.641Z,31.13
2023-03-29T08:00:43.380Z,32.08
2023-03-29T08:03:09.911Z,31.76
2023-03-29T08:05:41.496Z,31.78
2023-03-29T08:08:08.998Z,31.88
2023-03-29T08:10:35.619Z,31.15
2023-03-29T08:13:03.177Z,31.11
2023-03-29T08:15:29.824Z,31.01
2023-03-29T08:17:56.385Z,30.13
2023-03-29T08:20:22.782Z,30.87
2023-03-29T08:22:49.307Z,31.03
2023-03-29T08:25:16.485Z,30.32
2023-03-29T08:27:43.472Z,30.80
2023-03-29T08:30:10.077Z,30.56
2023-03-29T08:32:36.742Z,29.75
2023-03-29T08:35:03.228Z,29.66
2023-03-29T08:37:29.867Z,29.28
2023-03-29T08:39:56.422Z,29.27
2023-03-29T08:42:23.973Z,29.67
2023-03-29T08:44:50.404Z,29.52
2023-03-29T08:47:16.953Z,29.52
2023-03-29T08:49:43.433Z,30.01
2023-03-29T08:52:09.882Z,29.33
2023-03-29T08:54:36.385Z,29.09
2023-03-29T08:57:03.095Z,29.22
2023-03-29T08:59:30.647Z,29.29
2023-03-29T09:01:57.190Z,29.08
2023-03-29T09:04:23.981Z,28.19
2023-03-29T09:06:50.435Z,28.48
2023-03-29T09:09:17.079Z,27.72
2023-03-29T09:11:43.520Z,28.30
2023-03-29T09:14:11.792Z,27.76
2023-03-29T09:16:38.321Z,28.41
2023-03-29T09:19:04.737Z,27.66
2023-03-29T09:21:31.214Z,28.57
2023-03-29T09:23:57.728Z,28.75
2023-03-29T09:26:24.158Z,28.02
2023-03-29T09:28:51.719Z,28.48
2023-03-29T09:31:18.561Z,28.94
2023-03-29T09:33:45.057Z,29.19
2023-03-29T09:36:12.631Z,29.22
2023-03-29T09:38:39.403Z,29.53
2023-03-29T09:41:06.254Z,29.00
2023-03-29T09:43:33.139Z,28.93
2023-03-29T09:46:00.798Z,29.34
2023-03-29T09:48:27.283Z,29.55
2023-03-29T09:50:55.459Z,29.39
2023-03-29T09:53:21.941Z,29.35
2023-03-29T09:55:49.086Z,29.19
2023-03-29T09:58:16.915Z,28.80
2023-03-29T10:00:43.401Z,29.60
2023-03-29T10:03:10.831Z,29.05
2023-03-29T10:05:37.550Z,29.06
2023-03-29T10:08:04.000Z,28.78
2023-03-29T10:10:30.508Z,28.93
2023-03-29T10:12:56.968Z,28.73
2023-03-29T10:15:29.719Z,29.15
2023-03-29T10:17:57.076Z,29.18
2023-03-29T10:20:23.768Z,29.17
2023-03-29T10:22:50.518Z,28.94
2023-03-29T10:25:17.677Z,28.74
2023-03-29T10:27:44.204Z,29.04
2023-03-29T10:30:10.869Z,28.91
2023-03-29T10:32:37.384Z,28.90
2023-03-29T10:35:04.161Z,28.66
2023-03-29T10:37:30.836Z,29.38
2023-03-29T10:39:57.335Z,29.30
2023-03-29T10:42:24.909Z,29.00
2023-03-29T10:44:51.483Z,29.62
2023-03-29T10:47:17.900Z,29.41
2023-03-29T10:49:44.661Z,29.31
2023-03-29T10:52:11.167Z,28.96
2023-03-29T10:54:38.125Z,28.56
2023-03-29T10:57:05.509Z,28.58
2023-03-29T10:59:31.937Z,29.18
2023-03-29T11:01:58.694Z,28.71
2023-03-29T11:04:25.664Z,29.12
2023-03-29T11:06:52.199Z,29.11
2023-03-29T11:09:18.896Z,28.95
2023-03-29T11:11:45.404Z,29.48
2023-03-29T11:14:12.256Z,29.62
2023-03-29T11:16:38.838Z,29.22
2023-03-29T11:19:05.347Z,29.23
2023-03-29T11:21:32.057Z,29.01
2023-03-29T11:23:58.530Z,29.57
2023-03-29T11:26:25.006Z,30.00
2023-03-29T11:28:51.499Z,30.88
2023-03-29T11:31:18.003Z,31.71
2023-03-29T11:33:44.807Z,31.59
2023-03-29T11:36:11.601Z,31.91
2023-03-29T11:38:38.045Z,31.91
2023-03-29T11:41:05.019Z,31.91
2023-03-29T11:43:32.047Z,31.71
2023-03-29T11:45:58.456Z,31.50
2023-03-29T11:48:25.023Z,31.75
2023-03-29T11:50:51.584Z,32.17
2023-03-29T11:53:18.835Z,32.10
2023-03-29T11:55:45.422Z,32.34
2023-03-29T11:58:11.874Z,32.48
2023-03-29T12:00:38.331Z,32.50
2023-03-29T12:03:05.057Z,32.36
2023-03-29T12:05:32.029Z,32.26
2023-03-29T12:07:58.460Z,32.09
2023-03-29T12:10:25.060Z,32.49
2023-03-29T12:12:51.501Z,32.70
2023-03-29T12:15:17.958Z,33.20
2023-03-29T12:17:44.388Z,33.75
2023-03-29T12:20:11.120Z,33.91
2023-03-29T12:22:37.680Z,34.15
2023-03-29T12:25:04.278Z,33.57
2023-03-29T12:27:30.735Z,33.74
2023-03-29T12:29:57.205Z,34.01
2023-03-29T12:32:23.701Z,34.73
2023-03-29T12:34:50.154Z,42.62
2023-03-29T12:37:16.602Z,42.00
2023-03-29T12:39:43.031Z,40.25
2023-03-29T12:42:09.421Z,36.58
2023-03-29T12:44:35.859Z,38.31
2023-03-29T12:47:02.353Z,36.11
2023-03-29T12:49:28.778Z,36.74
2023-03-29T12:51:55.152Z,36.01
2023-03-29T12:54:22.024Z,34.38
2023-03-29T12:56:48.630Z,33.48
2023-03-29T12:59:15.093Z,32.18
2023-03-29T13:01:41.632Z,32.14
2023-03-29T13:04:08.168Z,31.94
2023-03-29T13:06:34.970Z,32.49
2023-03-29T13:09:01.477Z,32.80
2023-03-29T13:11:27.976Z,33.25
2023-03-29T13:13:54.991Z,33.33
2023-03-29T13:16:21.636Z,33.69
2023-03-29T13:18:50.174Z,34.10
2023-03-29T13:21:16.672Z,34.13
2023-03-29T13:23:43.092Z,34.54
2023-03-29T13:26:09.557Z,34.38
2023-03-29T13:28:36.050Z,34.64
2023-03-29T13:31:02.886Z,35.16
2023-03-29T13:33:29.381Z,34.95
2023-03-29T13:35:55.962Z,34.73
2023-03-29T13:38:22.479Z,34.56
2023-03-29T13:40:49.016Z,34.85
2023-03-29T13:43:15.818Z,35.21
2023-03-29T13:45:42.524Z,34.85
2023-03-29T13:48:08.984Z,34.62
2023-03-29T13:50:35.376Z,34.77
2023-03-29T13:53:01.836Z,35.12
2023-03-29T13:55:30.849Z,35.55
2023-03-29T13:57:58.714Z,36.04
2023-03-29T14:00:25.158Z,36.17
2023-03-29T14:02:52.140Z,36.77
2023-03-29T14:05:18.749Z,36.91
2023-03-29T14:07:45.633Z,37.59
2023-03-29T14:10:12.479Z,37.38
2023-03-29T14:12:41.943Z,37.40
2023-03-29T14:15:08.848Z,37.49
2023-03-29T14:17:35.936Z,38.21
2023-03-29T14:20:02.650Z,38.04
2023-03-29T14:22:29.338Z,37.88
2023-03-29T14:24:55.878Z,38.18
2023-03-29T14:27:22.360Z,38.35
2023-03-29T14:29:48.822Z,38.47
2023-03-29T14:32:15.567Z,38.04
2023-03-29T14:34:42.060Z,37.70
2023-03-29T14:37:08.611Z,37.71
2023-03-29T14:39:35.815Z,38.01
2023-03-29T14:42:02.429Z,38.45
2023-03-29T14:44:28.894Z,41.80
2023-03-29T14:46:55.273Z,39.66
2023-03-29T14:49:22.177Z,39.16
2023-03-29T14:51:48.639Z,39.18
2023-03-29T14:54:15.132Z,39.03
2023-03-29T14:56:41.695Z,39.08
2023-03-29T14:59:08.608Z,39.25
2023-03-29T15:01:35.336Z,39.55
2023-03-29T15:04:02.077Z,39.63
2023-03-29T15:06:28.839Z,40.21
2023-03-29T15:09:04.335Z,40.20
2023-03-29T15:11:32.728Z,39.63
2023-03-29T15:13:59.595Z,39.98
2023-03-29T15:16:26.677Z,39.67
2023-03-29T15:18:53.453Z,39.61
2023-03-29T15:21:20.589Z,40.45
2023-03-29T15:23:46.993Z,40.34
2023-03-29T15:26:13.439Z,41.27
2023-03-29T15:28:39.963Z,40.52
2023-03-29T15:31:08.225Z,40.71
2023-03-29T15:33:35.333Z,40.87
2023-03-29T15:36:02.286Z,41.21
2023-03-29T15:38:40.478Z,41.13
2023-03-29T15:41:09.646Z,41.39
2023-03-29T15:43:36.517Z,41.07
2023-03-29T15:46:03.154Z,41.38
2023-03-29T15:48:29.780Z,41.76
2023-03-29T15:50:57.647Z,41.64
2023-03-29T15:53:25.688Z,41.58
2023-03-29T15:55:52.209Z,41.40
2023-03-29T15:58:19.656Z,41.99
2023-03-29T16:00:46.282Z,41.29
2023-03-29T16:03:12.698Z,41.44
2023-03-29T16:05:39.129Z,41.75
2023-03-29T16:08:05.568Z,42.54
2023-03-29T16:10:32.000Z,41.91
2023-03-29T16:12:59.657Z,41.95
2023-03-29T16:15:26.160Z,42.20
2023-03-29T16:17:52.645Z,41.85
2023-03-29T16:20:19.370Z,41.66
2023-03-29T16:22:45.791Z,42.27
2023-03-29T16:25:12.295Z,42.52
2023-03-29T16:27:39.227Z,42.83
2023-03-29T16:30:05.882Z,42.54
2023-03-29T16:32:32.527Z,42.68
2023-03-29T16:34:59.024Z,45.09
2023-03-29T16:37:25.793Z,43.13
2023-03-29T16:39:52.621Z,43.18
2023-03-29T16:42:19.067Z,43.13
2023-03-29T16:44:45.550Z,42.65
2023-03-29T16:47:12.000Z,43.30
2023-03-29T16:49:40.133Z,42.78
2023-03-29T16:52:06.984Z,43.18
2023-03-29T16:54:33.515Z,43.35
2023-03-29T16:56:59.991Z,43.02
2023-03-29T16:59:27.374Z,42.73
2023-03-29T17:01:53.967Z,43.19
2023-03-29T17:04:20.601Z,46.21
2023-03-29T17:06:47.081Z,46.59
2023-03-29T17:09:13.577Z,45.59
2023-03-29T17:11:40.205Z,45.15
2023-03-29T17:14:06.665Z,42.97
2023-03-29T17:16:33.142Z,44.32
2023-03-29T17:18:59.635Z,44.15
2023-03-29T17:21:26.828Z,44.04
2023-03-29T17:23:53.385Z,43.12
2023-03-29T17:26:19.986Z,43.11
2023-03-29T17:28:46.713Z,42.67
2023-03-29T17:31:14.550Z,42.54
2023-03-29T17:33:41.083Z,42.07
2023-03-29T17:36:08.605Z,42.11
2023-03-29T17:38:35.822Z,41.97
2023-03-29T17:41:02.441Z,41.88
2023-03-29T17:43:30.820Z,41.48
2023-03-29T17:45:57.858Z,41.44
2023-03-29T17:48:25.177Z,41.04
2023-03-29T17:50:52.109Z,40.29
2023-03-29T17:53:18.982Z,41.00
2023-03-29T17:55:45.842Z,41.17
2023-03-29T17:58:13.486Z,41.47
2023-03-29T18:00:40.539Z,41.34
2023-03-29T18:03:08.680Z,41.44
2023-03-29T18:05:35.414Z,41.43
2023-03-29T18:08:04.996Z,41.64
2023-03-29T18:10:31.499Z,41.84
2023-03-29T18:12:59.987Z,42.16
2023-03-29T18:15:26.952Z,42.64
2023-03-29T18:17:56.276Z,42.37
2023-03-29T18:20:23.449Z,42.37
2023-03-29T18:22:50.028Z,42.20
2023-03-29T18:25:17.700Z,42.10
2023-03-29T18:27:44.514Z,41.97
2023-03-29T18:30:11.506Z,41.80
2023-03-29T18:32:38.578Z,41.93
2023-03-29T18:35:05.520Z,41.83
2023-03-29T18:37:33.405Z,41.70
2023-03-29T18:40:00.878Z,41.68
2023-03-29T18:42:28.472Z,41.57
2023-03-29T18:44:55.558Z,41.45
2023-03-29T18:47:22.767Z,41.38
2023-03-29T18:49:50.765Z,41.41
2023-03-29T18:52:18.853Z,40.89
2023-03-29T18:54:45.888Z,40.76
2023-03-29T18:57:13.060Z,40.96
2023-03-29T18:59:40.003Z,41.04
2023-03-29T19:02:07.025Z,41.57
2023-03-29T19:04:34.156Z,41.23
2023-03-29T19:07:01.279Z,41.18
2023-03-29T19:09:35.836Z,41.01
2023-03-29T19:12:03.357Z,41.19
2023-03-29T19:14:29.896Z,41.19
2023-03-29T19:16:56.874Z,41.21
2023-03-29T19:19:23.780Z,41.10
2023-03-29T19:21:54.182Z,41.11
2023-03-29T19:24:21.588Z,41.02
2023-03-29T19:26:48.528Z,40.76
2023-03-29T19:29:17.023Z,40.53
2023-03-29T19:31:43.693Z,40.67
2023-03-29T19:34:10.553Z,41.42
2023-03-29T19:36:37.712Z,41.85
2023-03-29T19:39:05.457Z,41.78
2023-03-29T19:41:32.534Z,41.94
2023-03-29T19:43:59.586Z,42.75
2023-03-29T19:46:26.397Z,42.96
2023-03-29T19:48:53.401Z,42.53
2023-03-29T19:51:20.316Z,42.28
2023-03-29T19:53:47.501Z,42.18
2023-03-29T19:56:14.629Z,42.35
2023-03-29T19:58:41.809Z,42.39
2023-03-29T20:01:11.876Z,42.67
2023-03-29T20:03:40.390Z,43.57
2023-03-29T20:06:08.282Z,42.62
2023-03-29T20:08:35.108Z,42.53
2023-03-29T20:11:02.046Z,42.43
2023-03-29T20:13:38.117Z,42.88
2023-03-29T20:16:05.632Z,43.00
2023-03-29T20:18:32.085Z,43.06
2023-03-29T20:20:58.522Z,42.72
2023-03-29T20:23:25.104Z,43.03
2023-03-29T20:25:51.755Z,42.79
2023-03-29T20:28:18.669Z,43.73
2023-03-29T20:30:45.337Z,43.01
2023-03-29T20:33:12.087Z,42.92
2023-03-29T20:35:39.623Z,43.13
2023-03-29T20:38:06.138Z,43.89
2023-03-29T20:40:32.592Z,44.30
2023-03-29T20:42:59.531Z,45.59
2023-03-29T20:45:26.034Z,45.16
2023-03-29T20:47:52.810Z,45.14
2023-03-29T20:50:19.249Z,44.32
2023-03-29T20:52:45.712Z,43.86
2023-03-29T20:55:12.130Z,44.72
2023-03-29T20:57:39.086Z,44.77
2023-03-29T21:00:05.619Z,44.51
2023-03-29T21:02:32.245Z,43.96
2023-03-29T21:04:58.817Z,44.78
2023-03-29T21:07:25.256Z,45.09
2023-03-29T21:09:52.190Z,44.91
2023-03-29T21:12:19.244Z,44.32
2023-03-29T21:14:46.010Z,45.23
2023-03-29T21:17:12.517Z,44.87
2023-03-29T21:19:39.035Z,45.27
2023-03-29T21:22:05.558Z,45.43
2023-03-29T21:24:32.343Z,45.09
2023-03-29T21:26:59.928Z,44.99
2023-03-29T21:29:26.404Z,45.64
2023-03-29T21:31:54.033Z,45.27
2023-03-29T21:34:20.524Z,44.56
2023-03-29T21:36:47.087Z,45.22
2023-03-29T21:39:13.565Z,45.29
2023-03-29T21:41:40.046Z,44.48
2023-03-29T21:44:06.519Z,44.59
2023-03-29T21:46:33.109Z,44.18
2023-03-29T21:48:59.608Z,44.38
2023-03-29T21:51:26.068Z,45.29
2023-03-29T21:53:52.500Z,44.80
2023-03-29T21:56:18.944Z,45.14
2023-03-29T21:58:45.451Z,45.61
2023-03-29T22:01:12.420Z,45.88
2023-03-29T22:03:38.859Z,44.91
2023-03-29T22:06:05.431Z,45.12
2023-03-29T22:08:31.938Z,45.01
2023-03-29T22:10:58.458Z,45.09
2023-03-29T22:13:25.053Z,45.77
2023-03-29T22:15:51.669Z,45.94
2023-03-29T22:18:18.305Z,45.32
2023-03-29T22:20:44.843Z,45.51
2023-03-29T22:23:11.328Z,45.23
2023-03-29T22:25:37.836Z,44.67
2023-03-29T22:28:04.505Z,45.43
2023-03-29T22:30:30.886Z,45.08
2023-03-29T22:32:58.397Z,46.01
2023-03-29T22:35:25.022Z,46.03
2023-03-29T22:37:51.432Z,46.73
2023-03-29T22:40:17.877Z,45.38
2023-03-29T22:42:44.264Z,44.96
2023-03-29T22:45:10.710Z,46.08
2023-03-29T22:47:37.212Z,45.37
2023-03-29T22:50:03.801Z,45.71
2023-03-29T22:52:30.230Z,44.78
2023-03-29T22:54:56.737Z,45.89
2023-03-29T22:57:26.518Z,45.82
2023-03-29T22:59:53.003Z,45.84
2023-03-29T23:02:19.469Z,45.66
2023-03-29T23:04:46.080Z,45.25
2023-03-29T23:07:12.525Z,44.91
2023-03-29T23:09:39.021Z,44.80
2023-03-29T23:12:05.452Z,44.63
2023-03-29T23:14:31.940Z,45.93
2023-03-29T23:16:58.319Z,46.58
2023-03-29T23:19:24.856Z,46.02
2023-03-29T23:21:51.296Z,45.45
2023-03-29T23:24:19.257Z,45.43
2023-03-29T23:26:45.772Z,45.26
2023-03-29T23:29:12.228Z,46.77
2023-03-29T23:31:38.617Z,45.95
2023-03-29T23:34:05.108Z,45.49
2023-03-29T23:36:31.578Z,45.42
2023-03-29T23:38:58.011Z,45.50
2023-03-29T23:41:24.464Z,45.27
2023-03-29T23:43:50.910Z,45.47
2023-03-29T23:46:17.535Z,45.90
2023-03-29T23:48:44.080Z,45.65
2023-03-29T23:51:10.822Z,45.81
2023-03-29T23:53:37.223Z,46.60
2023-03-29T23:56:03.782Z,45.87
2023-03-29T23:58:30.301Z,46.50
